Impros — D5BS7 — position and weather

sailwx.info

Track history (hours):
 
Tides and Currents Weather Stations Pressure Air Temp Water Temp Dewpoint Dewpoint Depression Visibility Wind Speed Wind Dir Waves Ship Positions

Impros

Last reported at 2016-Jan-29 05:21 UTC. Time now 2016-Feb-10 22:07 UTC.
Position N 01°15' E 104°04'.
Warning: this ship's position is 12 days out of date.

Length 244 m; draft 14 m.

Type: Tanker. MMSI: 636015595.

Date/timePositionNaut miles runAvg speedWind from/ knotsBaromVisibWave heightAir tempDewpointWater temp
2016-Jan-29 05:21N 01°15' E 104°04'6 7.5
2016-Jan-29 04:33N 01°14' E 103°58'7 7.0
2016-Jan-29 03:30N 01°11' E 103°51'6 6.6
2016-Jan-29 02:33N 01°08' E 103°46'7 2.2
2016-Jan-28 23:29N 01°11' E 103°40'1 0.2
2016-Jan-28 19:29N 01°12' E 103°41'2 2.4
2016-Jan-28 18:33N 01°14' E 103°41'0 0.0
2016-Jan-27 16:19N 01°14' E 103°41'2 2.4
2016-Jan-27 15:33N 01°13' E 103°40'6 6.3
2016-Jan-27 14:33N 01°09' E 103°46'1010.2
2016-Jan-27 13:33N 01°15' E 103°54'1 0.7
2016-Jan-27 11:33N 01°16' E 103°55'0 0.1
2016-Jan-27 10:33N 01°16' E 103°55'0 0.0
2016-Jan-27 09:33N 01°16' E 103°55'0 0.1
2016-Jan-27 08:27N 01°16' E 103°55'0 0.1
2016-Jan-27 06:12N 01°16' E 103°55'0 0.1
2016-Jan-27 05:27N 01°16' E 103°55'0 0.0
2016-Jan-27 03:18N 01°16' E 103°55'0 0.0
2016-Jan-27 02:33N 01°16' E 103°55'0 0.0
2016-Jan-27 01:30N 01°16' E 103°55'0 0.0
2016-Jan-27 00:33N 01°16' E 103°55'0 0.0
2016-Jan-26 23:33N 01°16' E 103°55'0 0.0
2016-Jan-26 22:33N 01°16' E 103°55'0 0.0
2016-Jan-26 21:33N 01°16' E 103°55'0 0.0
2016-Jan-26 20:33N 01°16' E 103°55'0 0.0
2016-Jan-26 19:33N 01°16' E 103°55'0 0.0
2016-Jan-26 18:33N 01°16' E 103°55'0 0.0
2016-Jan-26 17:33N 01°16' E 103°55'0 0.0
2016-Jan-26 16:33N 01°16' E 103°55'0 0.0
2016-Jan-26 15:33N 01°16' E 103°55'0 0.0
2016-Jan-26 14:33N 01°16' E 103°55'0 0.0
2016-Jan-26 13:33N 01°16' E 103°55'0 0.1
2016-Jan-26 12:30N 01°16' E 103°55'0 0.2
2016-Jan-26 11:30N 01°16' E 103°55'0 0.0
2016-Jan-26 10:30N 01°16' E 103°55'0 0.0
2016-Jan-26 09:33N 01°16' E 103°55'0 0.0
2016-Jan-26 08:33N 01°16' E 103°55'0 0.0
2016-Jan-26 07:29N 01°16' E 103°55'0 0.2
2016-Jan-26 06:32N 01°16' E 103°55'0 0.0
2016-Jan-26 05:17N 01°16' E 103°55'0 0.0
2016-Jan-26 04:32N 01°16' E 103°55'0 0.1
2016-Jan-26 03:23N 01°16' E 103°55'0 0.0
2016-Jan-26 02:17N 01°16' E 103°55'0 0.0
2016-Jan-26 01:32N 01°16' E 103°55'0 0.0
2016-Jan-26 00:32N 01°16' E 103°55'0 0.0
2016-Jan-25 23:26N 01°16' E 103°55'0 0.0
2016-Jan-25 22:32N 01°16' E 103°55'0 0.0
2016-Jan-25 21:32N 01°16' E 103°55'0 0.0
2016-Jan-25 20:32N 01°16' E 103°55'0 0.0
2016-Jan-25 19:32N 01°16' E 103°55'0 0.0
2016-Jan-25 18:33N 01°16' E 103°55'0 0.0
2016-Jan-25 17:33N 01°16' E 103°55'0 0.0
2016-Jan-25 16:33N 01°16' E 103°55'0 0.3
2016-Jan-25 15:33N 01°16' E 103°55'2 2.2
2016-Jan-25 14:33N 01°16' E 103°57'9 9.0
2016-Jan-25 13:33N 01°16' E 104°06'  
2016-Jan-19 09:32N 22°20' E 120°02'1010.4
2016-Jan-19 08:33N 22°28' E 120°09'10 9.6
2016-Jan-19 07:32N 22°33' E 120°18'2 2.5
2016-Jan-19 06:33N 22°32' E 120°20'0 0.0
2016-Jan-19 05:33N 22°32' E 120°20'  
Track history (hours):
 
Tides and Currents Weather Stations Pressure Air Temp Water Temp Dewpoint Dewpoint Depression Visibility Wind Speed Wind Dir Waves Ship Positions

Impros

Last reported at 2016-Jan-29 05:21 UTC. Time now 2016-Feb-10 22:07 UTC.
Position N 01°15' E 104°04'.
Warning: this ship's position is 12 days out of date.

Length 244 m; draft 14 m.

Type: Tanker. MMSI: 636015595.

Date/timePositionNaut miles runAvg speedWind from/ knotsBaromVisibWave heightAir tempDewpointWater temp
2016-Jan-29 05:21N 01°15' E 104°04'6 7.5
2016-Jan-29 04:33N 01°14' E 103°58'7 7.0
2016-Jan-29 03:30N 01°11' E 103°51'6 6.6
2016-Jan-29 02:33N 01°08' E 103°46'7 2.2
2016-Jan-28 23:29N 01°11' E 103°40'1 0.2
2016-Jan-28 19:29N 01°12' E 103°41'2 2.4
2016-Jan-28 18:33N 01°14' E 103°41'0 0.0
2016-Jan-27 16:19N 01°14' E 103°41'2 2.4
2016-Jan-27 15:33N 01°13' E 103°40'6 6.3
2016-Jan-27 14:33N 01°09' E 103°46'1010.2
2016-Jan-27 13:33N 01°15' E 103°54'1 0.7
2016-Jan-27 11:33N 01°16' E 103°55'0 0.1
2016-Jan-27 10:33N 01°16' E 103°55'0 0.0
2016-Jan-27 09:33N 01°16' E 103°55'0 0.1
2016-Jan-27 08:27N 01°16' E 103°55'0 0.1
2016-Jan-27 06:12N 01°16' E 103°55'0 0.1
2016-Jan-27 05:27N 01°16' E 103°55'0 0.0
2016-Jan-27 03:18N 01°16' E 103°55'0 0.0
2016-Jan-27 02:33N 01°16' E 103°55'0 0.0
2016-Jan-27 01:30N 01°16' E 103°55'0 0.0
2016-Jan-27 00:33N 01°16' E 103°55'0 0.0
2016-Jan-26 23:33N 01°16' E 103°55'0 0.0
2016-Jan-26 22:33N 01°16' E 103°55'0 0.0
2016-Jan-26 21:33N 01°16' E 103°55'0 0.0
2016-Jan-26 20:33N 01°16' E 103°55'0 0.0
2016-Jan-26 19:33N 01°16' E 103°55'0 0.0
2016-Jan-26 18:33N 01°16' E 103°55'0 0.0
2016-Jan-26 17:33N 01°16' E 103°55'0 0.0
2016-Jan-26 16:33N 01°16' E 103°55'0 0.0
2016-Jan-26 15:33N 01°16' E 103°55'0 0.0
2016-Jan-26 14:33N 01°16' E 103°55'0 0.0
2016-Jan-26 13:33N 01°16' E 103°55'0 0.1
2016-Jan-26 12:30N 01°16' E 103°55'0 0.2
2016-Jan-26 11:30N 01°16' E 103°55'0 0.0
2016-Jan-26 10:30N 01°16' E 103°55'0 0.0
2016-Jan-26 09:33N 01°16' E 103°55'0 0.0
2016-Jan-26 08:33N 01°16' E 103°55'0 0.0
2016-Jan-26 07:29N 01°16' E 103°55'0 0.2
2016-Jan-26 06:32N 01°16' E 103°55'0 0.0
2016-Jan-26 05:17N 01°16' E 103°55'0 0.0
2016-Jan-26 04:32N 01°16' E 103°55'0 0.1
2016-Jan-26 03:23N 01°16' E 103°55'0 0.0
2016-Jan-26 02:17N 01°16' E 103°55'0 0.0
2016-Jan-26 01:32N 01°16' E 103°55'0 0.0
2016-Jan-26 00:32N 01°16' E 103°55'0 0.0
2016-Jan-25 23:26N 01°16' E 103°55'0 0.0
2016-Jan-25 22:32N 01°16' E 103°55'0 0.0
2016-Jan-25 21:32N 01°16' E 103°55'0 0.0
2016-Jan-25 20:32N 01°16' E 103°55'0 0.0
2016-Jan-25 19:32N 01°16' E 103°55'0 0.0
2016-Jan-25 18:33N 01°16' E 103°55'0 0.0
2016-Jan-25 17:33N 01°16' E 103°55'0 0.0
2016-Jan-25 16:33N 01°16' E 103°55'0 0.3
2016-Jan-25 15:33N 01°16' E 103°55'2 2.2
2016-Jan-25 14:33N 01°16' E 103°57'9 9.0
2016-Jan-25 13:33N 01°16' E 104°06'  
2016-Jan-19 09:32N 22°20' E 120°02'1010.4
2016-Jan-19 08:33N 22°28' E 120°09'10 9.6
2016-Jan-19 07:32N 22°33' E 120°18'2 2.5
2016-Jan-19 06:33N 22°32' E 120°20'0 0.0
2016-Jan-19 05:33N 22°32' E 120°20'  

Dump ship's entire track history